Startpagina
METAR-TAF:

METAR-TAF

Vliegvelden :

EuroAirport Basel-Mulhouse-Freiburg

Bazel-Mulhouse, Frankrijk

breedte: 47-36N, lengte: 007-31E, hoogte: 270 m

Actueel weer

Dit bericht is 40 minuten geleden gemaakt, om 20:30 UTC
Wind 10 kt uit het westen
Temperatuur 15°C
Vochtigheid 55%
Druk 1025 hPa
Zicht 10 km of meer
Gebroken wolken op 4500 ft

METAR: LFSB 232030Z 26010KT 9999 BKN045 15/06 Q1025 NOSIG

Tijdstip: 22:10 (21:10 UTC)

Verwachting

Dit bericht is 46 minuten geleden gemaakt, om 20:24 UTC
Verwachting geldig van 23 om 20 UTC tot 24 om 18 UTC
Wind 12 kt uit het westzuidwesten
Zicht 10 km of meer
Gebroken wolken op 4500 ft
Kans 30% :
Tijdelijke
van 24 om 00 UTC tot 24 om 06 UTC
Gebroken wolken op 1800 ft
lichte regen, motregen
Tijdelijke
van 24 om 13 UTC tot 24 om 18 UTC
Wind 15 kt uit het westen met uitschieters tot 25 kt
Zicht 10 km of meer
geen wolken onder 1500 m en geen cumulonimbus

TAF: LFSB 232024Z 2320/2418 25012KT 9999 BKN045 PROB30 TEMPO 2400/2406 -RADZ BKN018 TEMPO 2413/2418 27015G25KT CAVOK

Waarnemingen en weersverwachtingen van meer dan 4000 vliegvelden (METAR en TAF).

De beschikbare stations zijn de gele en rode punten op de kaart.

Ga met uw muis naar het station om de naam te zien.

Klik dan om waarnemingen en weersverwachtingen te zien.

kaart wijzigen: klik op de groene knoppen met een zwart kruis om in te zoomen, op de groene knop met een streepje om uit te zoomen of op de groene pijlen voor aangrenzende kaarten.


METAR-TAF: